createdAt,value
2018-07-16T00:00:21.490Z,2.90
2018-07-16T00:01:21.529Z,3.10
2018-07-16T00:02:21.562Z,2.90
2018-07-16T00:03:21.600Z,2.90
2018-07-16T00:04:21.627Z,2.90
2018-07-16T00:05:21.667Z,3.00
2018-07-16T00:06:21.697Z,3.10
2018-07-16T00:07:21.734Z,2.70
2018-07-16T00:08:21.773Z,3.00
2018-07-16T00:09:21.814Z,2.90
2018-07-16T00:10:21.839Z,2.90
2018-07-16T00:11:21.873Z,2.60
2018-07-16T00:12:21.912Z,2.60
2018-07-16T00:13:21.988Z,2.70
2018-07-16T00:14:22.010Z,2.80
2018-07-16T00:15:22.017Z,2.80
2018-07-16T00:16:22.049Z,2.60
2018-07-16T00:17:22.084Z,2.80
2018-07-16T00:18:22.118Z,2.80
2018-07-16T00:19:22.154Z,2.60
2018-07-16T00:20:22.199Z,2.70
2018-07-16T00:21:22.224Z,2.50
2018-07-16T00:22:22.255Z,2.40
2018-07-16T00:23:22.292Z,2.50
2018-07-16T00:24:22.326Z,2.50
2018-07-16T00:25:22.362Z,2.70
2018-07-16T00:26:22.400Z,2.60
2018-07-16T00:27:22.479Z,2.40
2018-07-16T00:28:22.466Z,2.60
2018-07-16T00:29:22.501Z,2.50
2018-07-16T00:30:22.539Z,2.20
2018-07-16T00:31:22.578Z,2.30
2018-07-16T00:32:22.605Z,2.30
2018-07-16T00:33:22.638Z,2.80
2018-07-16T00:34:22.684Z,2.30
2018-07-16T00:35:22.709Z,2.60
2018-07-16T00:36:22.760Z,2.30
2018-07-16T00:37:22.780Z,2.60
2018-07-16T00:38:22.819Z,2.40
2018-07-16T00:39:22.849Z,2.10
2018-07-16T00:40:22.884Z,2.40
2018-07-16T00:41:22.923Z,2.00
2018-07-16T00:42:22.985Z,2.20
2018-07-16T00:43:22.987Z,2.40
2018-07-16T00:44:23.035Z,2.20
2018-07-16T00:45:23.062Z,2.40
2018-07-16T00:46:23.092Z,2.20
2018-07-16T00:47:23.143Z,2.10
2018-07-16T00:48:23.164Z,2.20
2018-07-16T00:49:23.201Z,2.30
2018-07-16T00:50:23.232Z,2.40
2018-07-16T00:51:23.265Z,2.40
2018-07-16T00:52:23.301Z,2.60
2018-07-16T00:53:23.338Z,2.40
2018-07-16T00:54:23.370Z,2.50
2018-07-16T00:55:23.407Z,2.80
2018-07-16T00:56:23.462Z,2.70
2018-07-16T00:57:23.480Z,2.60
2018-07-16T00:58:23.509Z,2.90
2018-07-16T00:59:23.550Z,2.60
2018-07-16T01:00:23.581Z,2.60
2018-07-16T01:01:23.667Z,2.40
2018-07-16T01:02:23.651Z,2.40
2018-07-16T01:03:23.686Z,2.40
2018-07-16T01:04:23.726Z,2.20
2018-07-16T01:05:23.754Z,2.70
2018-07-16T01:06:23.785Z,2.40
2018-07-16T01:07:23.826Z,2.30
2018-07-16T01:08:23.859Z,2.30
2018-07-16T01:09:23.895Z,2.40
2018-07-16T01:10:23.928Z,2.30
2018-07-16T01:11:23.961Z,2.20
2018-07-16T01:12:23.996Z,2.40
2018-07-16T01:13:24.030Z,2.20
2018-07-16T01:14:24.062Z,2.10
2018-07-16T01:15:24.112Z,2.30
2018-07-16T01:16:24.135Z,2.10
2018-07-16T01:17:24.166Z,2.30
2018-07-16T01:18:24.208Z,2.30
2018-07-16T01:19:24.236Z,2.40
2018-07-16T01:20:24.274Z,2.40
2018-07-16T01:21:24.310Z,2.70
2018-07-16T01:22:24.343Z,2.50
2018-07-16T01:23:24.378Z,2.70
2018-07-16T01:24:24.416Z,2.60
2018-07-16T01:25:24.449Z,2.80
2018-07-16T01:26:24.484Z,2.60
2018-07-16T01:27:24.516Z,2.50
2018-07-16T01:28:24.548Z,2.50
2018-07-16T01:29:24.620Z,2.60
2018-07-16T01:30:24.621Z,2.40
2018-07-16T01:31:24.655Z,2.40
2018-07-16T01:32:24.692Z,2.40
2018-07-16T01:33:24.725Z,2.20
2018-07-16T01:34:24.761Z,2.40
2018-07-16T01:35:24.799Z,2.20
2018-07-16T01:36:24.828Z,2.50
2018-07-16T01:37:24.871Z,2.50
2018-07-16T01:38:24.918Z,2.50
2018-07-16T01:39:24.936Z,2.40
2018-07-16T01:40:24.974Z,2.20
2018-07-16T01:41:25.003Z,2.10
2018-07-16T01:42:25.042Z,2.40
2018-07-16T01:43:25.072Z,2.10
2018-07-16T01:44:25.112Z,2.30
2018-07-16T01:45:25.143Z,2.20
2018-07-16T01:46:25.178Z,2.20
2018-07-16T01:47:25.212Z,2.20
2018-07-16T01:48:25.252Z,2.20
2018-07-16T01:49:25.280Z,2.10
2018-07-16T01:50:25.317Z,2.20
2018-07-16T01:51:25.355Z,2.20
2018-07-16T01:52:25.385Z,2.10
2018-07-16T01:53:25.420Z,2.10
2018-07-16T01:54:25.457Z,2.30
2018-07-16T01:55:25.490Z,2.10
2018-07-16T01:56:25.529Z,2.30
2018-07-16T01:57:25.559Z,2.10
2018-07-16T01:58:25.593Z,2.00
2018-07-16T01:59:25.633Z,2.00
2018-07-16T02:00:25.663Z,2.10
2018-07-16T02:01:25.699Z,2.40
2018-07-16T02:02:25.738Z,2.30
2018-07-16T02:03:25.768Z,2.30
2018-07-16T02:04:25.805Z,2.20
2018-07-16T02:05:25.840Z,2.30
2018-07-16T02:06:25.872Z,2.20
2018-07-16T02:07:25.905Z,2.30
2018-07-16T02:08:25.940Z,2.50
2018-07-16T02:09:25.976Z,2.10
2018-07-16T02:10:26.011Z,2.50
2018-07-16T02:11:26.045Z,2.50
2018-07-16T02:12:26.076Z,2.10
2018-07-16T02:13:26.119Z,2.40
2018-07-16T02:14:26.151Z,2.10
2018-07-16T02:15:26.182Z,2.40
2018-07-16T02:16:26.218Z,2.50
2018-07-16T02:17:26.252Z,2.50
2018-07-16T02:18:26.286Z,2.50
2018-07-16T02:19:26.322Z,2.30
2018-07-16T02:20:26.356Z,2.30
2018-07-16T02:21:26.395Z,2.60
2018-07-16T02:22:26.455Z,2.30
2018-07-16T02:23:26.461Z,2.50
2018-07-16T02:24:26.494Z,2.30
2018-07-16T02:25:26.529Z,2.40
2018-07-16T02:26:26.624Z,2.40
2018-07-16T02:27:26.604Z,2.60
2018-07-16T02:28:26.637Z,2.40
2018-07-16T02:29:26.669Z,2.50
2018-07-16T02:30:26.704Z,2.40
2018-07-16T02:31:26.736Z,2.40
2018-07-16T02:32:26.778Z,2.60
2018-07-16T02:33:26.808Z,2.40
2018-07-16T02:34:26.836Z,2.50
2018-07-16T02:35:26.882Z,2.50
2018-07-16T02:36:26.910Z,2.40
2018-07-16T02:37:26.948Z,2.40
2018-07-16T02:38:26.980Z,2.20
2018-07-16T02:39:27.015Z,2.40
2018-07-16T02:40:27.053Z,2.30
2018-07-16T02:41:27.084Z,2.30
2018-07-16T02:42:27.125Z,2.30
2018-07-16T02:43:27.155Z,2.40
2018-07-16T02:44:27.189Z,2.30
2018-07-16T02:45:27.222Z,2.30
2018-07-16T02:46:27.258Z,2.30
2018-07-16T02:47:27.292Z,2.10
2018-07-16T02:48:27.329Z,2.40
2018-07-16T02:49:27.357Z,2.30
2018-07-16T02:50:27.396Z,1.90
2018-07-16T02:51:27.435Z,2.10
2018-07-16T02:52:27.466Z,2.20
2018-07-16T02:53:27.502Z,2.20
2018-07-16T02:54:27.534Z,2.10
2018-07-16T02:55:27.569Z,2.10
2018-07-16T02:56:27.655Z,2.20
2018-07-16T02:57:27.648Z,2.00
2018-07-16T02:58:27.675Z,2.10
2018-07-16T02:59:27.713Z,2.20
2018-07-16T03:00:27.743Z,2.30
2018-07-16T03:01:27.779Z,2.10
2018-07-16T03:02:27.812Z,2.40
2018-07-16T03:03:27.848Z,2.40
2018-07-16T03:04:27.876Z,2.10
2018-07-16T03:05:27.916Z,2.80
2018-07-16T03:06:27.951Z,2.10
2018-07-16T03:07:27.984Z,2.00
2018-07-16T03:08:28.022Z,2.30
2018-07-16T03:09:28.054Z,1.90
2018-07-16T03:10:28.099Z,2.30
2018-07-16T03:11:28.120Z,2.30
2018-07-16T03:12:28.162Z,2.30
2018-07-16T03:13:28.192Z,2.30
2018-07-16T03:14:28.226Z,2.10
2018-07-16T03:15:28.264Z,2.40
2018-07-16T03:16:28.302Z,2.10
2018-07-16T03:17:28.332Z,1.90
2018-07-16T03:18:28.365Z,2.20
2018-07-16T03:19:28.400Z,2.40
2018-07-16T03:20:28.437Z,2.30
2018-07-16T03:21:28.472Z,2.50
2018-07-16T03:22:28.503Z,2.30
2018-07-16T03:23:28.533Z,2.00
2018-07-16T03:24:28.621Z,2.40
2018-07-16T03:25:28.620Z,2.00
2018-07-16T03:26:28.644Z,2.30
2018-07-16T03:27:28.677Z,2.20
2018-07-16T03:28:28.711Z,2.20
2018-07-16T03:29:28.749Z,2.50
2018-07-16T03:30:28.780Z,2.40
2018-07-16T03:31:28.815Z,2.10
2018-07-16T03:32:28.881Z,2.10
2018-07-16T03:33:28.885Z,2.50
2018-07-16T03:34:28.918Z,2.30
2018-07-16T03:35:28.955Z,2.40
2018-07-16T03:36:28.993Z,2.50
2018-07-16T03:37:29.025Z,2.20
2018-07-16T03:38:29.057Z,2.40
2018-07-16T03:39:29.092Z,2.60
2018-07-16T03:40:29.133Z,2.40
2018-07-16T03:41:29.164Z,2.60
2018-07-16T03:42:29.210Z,2.30
2018-07-16T03:43:29.229Z,2.30
2018-07-16T03:44:29.264Z,2.40
2018-07-16T03:45:29.308Z,2.30
2018-07-16T03:46:29.338Z,2.30
2018-07-16T03:47:29.371Z,2.40
2018-07-16T03:48:29.398Z,2.60
2018-07-16T03:49:29.438Z,2.20
2018-07-16T03:50:29.473Z,2.30
2018-07-16T03:51:29.506Z,2.20
2018-07-16T03:52:29.545Z,2.20
2018-07-16T03:53:29.570Z,2.30
2018-07-16T03:54:29.693Z,2.30
2018-07-16T03:55:29.649Z,2.40
2018-07-16T03:56:29.679Z,2.20
2018-07-16T03:57:29.749Z,2.30
2018-07-16T03:58:29.766Z,2.10
2018-07-16T03:59:29.785Z,2.30
2018-07-16T04:00:29.818Z,2.40
2018-07-16T04:01:29.865Z,2.30
2018-07-16T04:02:29.887Z,2.50
2018-07-16T04:03:29.924Z,2.30
2018-07-16T04:04:29.954Z,2.30
2018-07-16T04:05:29.994Z,2.30
2018-07-16T04:06:30.024Z,2.30
2018-07-16T04:07:30.068Z,2.40
2018-07-16T04:08:30.095Z,2.40
2018-07-16T04:09:30.142Z,1.90
2018-07-16T04:10:30.164Z,2.40
2018-07-16T04:11:30.199Z,2.20
2018-07-16T04:12:30.231Z,2.20
2018-07-16T04:13:30.266Z,2.50
2018-07-16T04:14:30.297Z,2.10
2018-07-16T04:15:30.335Z,2.40
2018-07-16T04:16:30.369Z,2.70
2018-07-16T04:17:30.405Z,2.40
2018-07-16T04:18:30.440Z,2.50
2018-07-16T04:19:30.477Z,2.60
2018-07-16T04:20:30.507Z,2.60
2018-07-16T04:21:30.544Z,2.50
2018-07-16T04:22:30.585Z,2.40
2018-07-16T04:23:30.615Z,2.50
2018-07-16T04:24:30.654Z,2.30
2018-07-16T04:25:30.675Z,2.50
2018-07-16T04:26:30.719Z,2.20
2018-07-16T04:27:30.748Z,2.40
2018-07-16T04:28:30.784Z,2.20
2018-07-16T04:29:30.819Z,2.20
2018-07-16T04:30:30.863Z,2.40
2018-07-16T04:31:30.888Z,2.40
2018-07-16T04:32:30.923Z,2.50
2018-07-16T04:33:30.957Z,2.40
2018-07-16T04:34:30.992Z,2.30
2018-07-16T04:35:31.034Z,2.30
2018-07-16T04:36:31.059Z,2.30
2018-07-16T04:37:31.095Z,2.50
2018-07-16T04:38:31.129Z,2.50
2018-07-16T04:39:31.167Z,2.10
2018-07-16T04:40:31.200Z,2.40
2018-07-16T04:41:31.234Z,2.40
2018-07-16T04:42:31.270Z,2.20
2018-07-16T04:43:31.300Z,2.00
2018-07-16T04:44:31.336Z,2.40
2018-07-16T04:45:31.371Z,2.30
2018-07-16T04:46:31.409Z,2.40
2018-07-16T04:47:31.437Z,2.40
2018-07-16T04:48:31.475Z,2.10
2018-07-16T04:49:31.508Z,2.30
2018-07-16T04:50:31.544Z,2.50
2018-07-16T04:51:31.581Z,2.50
2018-07-16T04:52:31.612Z,2.30
2018-07-16T04:53:31.649Z,2.10
2018-07-16T04:54:31.682Z,2.30
2018-07-16T04:55:31.716Z,2.10
2018-07-16T04:56:31.751Z,2.30
2018-07-16T04:57:31.794Z,2.30
2018-07-16T04:58:31.819Z,2.30
2018-07-16T04:59:31.857Z,2.40
2018-07-16T05:00:31.887Z,2.30
2018-07-16T05:01:31.922Z,2.30
2018-07-16T05:02:31.957Z,2.20
2018-07-16T05:03:31.990Z,2.30
2018-07-16T05:04:32.025Z,2.50
2018-07-16T05:05:32.060Z,2.40
2018-07-16T05:06:32.097Z,2.20
2018-07-16T05:07:32.134Z,2.40
2018-07-16T05:08:32.163Z,2.40
2018-07-16T05:09:32.198Z,2.50
2018-07-16T05:10:32.234Z,2.30
2018-07-16T05:11:32.269Z,2.30
2018-07-16T05:12:32.306Z,2.10
2018-07-16T05:13:32.336Z,2.30
2018-07-16T05:14:32.412Z,2.20
2018-07-16T05:15:32.409Z,2.20
2018-07-16T05:16:32.439Z,2.30
2018-07-16T05:17:32.476Z,2.20
2018-07-16T05:18:32.746Z,2.40
2018-07-16T05:19:32.545Z,2.40
2018-07-16T05:20:32.601Z,2.60
2018-07-16T05:21:32.609Z,2.20
2018-07-16T05:22:32.649Z,2.20
2018-07-16T05:23:32.686Z,2.60
2018-07-16T05:24:32.718Z,2.50
2018-07-16T05:25:32.753Z,2.10
2018-07-16T05:26:32.787Z,2.70
2018-07-16T05:27:32.821Z,2.40
2018-07-16T05:28:32.856Z,2.30
2018-07-16T05:29:32.889Z,2.40
2018-07-16T05:30:32.926Z,2.40
2018-07-16T05:31:32.977Z,2.40
2018-07-16T05:32:33.112Z,2.40
2018-07-16T05:33:33.028Z,2.40
2018-07-16T05:34:33.063Z,2.30
2018-07-16T05:35:33.096Z,2.50
2018-07-16T05:36:33.133Z,2.30
2018-07-16T05:37:33.166Z,2.50
2018-07-16T05:38:33.203Z,2.60
2018-07-16T05:39:33.237Z,2.50
2018-07-16T05:40:33.276Z,2.00
2018-07-16T05:41:33.304Z,2.40
2018-07-16T05:42:33.340Z,2.40
2018-07-16T05:43:33.374Z,2.30
2018-07-16T05:44:33.410Z,2.20
2018-07-16T05:45:33.451Z,2.60
2018-07-16T05:46:33.475Z,2.50
2018-07-16T05:47:33.517Z,2.30
2018-07-16T05:48:33.553Z,2.30
2018-07-16T05:49:33.583Z,2.30
2018-07-16T05:50:33.620Z,2.20
2018-07-16T05:51:33.668Z,2.30
2018-07-16T05:52:33.690Z,1.90
2018-07-16T05:53:33.721Z,2.30
2018-07-16T05:54:33.756Z,2.30
2018-07-16T05:55:33.800Z,2.30
2018-07-16T05:56:33.824Z,2.30
2018-07-16T05:57:33.860Z,2.20
2018-07-16T05:58:33.898Z,2.20
2018-07-16T05:59:33.931Z,2.60
2018-07-16T06:00:33.962Z,2.00
2018-07-16T06:01:33.998Z,2.40
2018-07-16T06:02:34.033Z,2.10
2018-07-16T06:03:34.066Z,2.50
2018-07-16T06:04:34.102Z,2.40
2018-07-16T06:05:34.139Z,2.30
2018-07-16T06:06:34.176Z,2.30
2018-07-16T06:07:34.208Z,2.50
2018-07-16T06:08:34.241Z,2.30
2018-07-16T06:09:34.279Z,2.30
2018-07-16T06:10:34.311Z,2.40
2018-07-16T06:11:34.345Z,2.30
2018-07-16T06:12:34.383Z,2.10
2018-07-16T06:13:34.415Z,2.40
2018-07-16T06:14:34.512Z,2.10
2018-07-16T06:15:34.483Z,2.40
2018-07-16T06:16:34.527Z,2.30
2018-07-16T06:17:34.551Z,2.40
2018-07-16T06:18:34.589Z,2.10
2018-07-16T06:19:34.620Z,2.30
2018-07-16T06:20:34.662Z,2.40
2018-07-16T06:21:34.693Z,2.30
2018-07-16T06:22:34.730Z,2.50
2018-07-16T06:23:34.758Z,2.40
2018-07-16T06:24:34.801Z,2.20
2018-07-16T06:25:34.830Z,2.20
2018-07-16T06:26:34.866Z,2.10
2018-07-16T06:27:34.903Z,2.40
2018-07-16T06:28:34.937Z,2.40
2018-07-16T06:29:34.970Z,2.30
2018-07-16T06:30:35.004Z,2.30
2018-07-16T06:31:35.040Z,2.40
2018-07-16T06:32:35.133Z,2.20
2018-07-16T06:33:35.119Z,2.40
2018-07-16T06:34:35.146Z,2.40
2018-07-16T06:35:35.178Z,2.30
2018-07-16T06:36:35.214Z,1.80
2018-07-16T06:37:35.251Z,2.20
2018-07-16T06:38:35.283Z,2.20
2018-07-16T06:39:35.359Z,2.20
2018-07-16T06:40:35.473Z,2.30
2018-07-16T06:41:35.854Z,2.10
2018-07-16T06:42:35.427Z,2.20
2018-07-16T06:43:35.468Z,2.30
2018-07-16T06:44:35.492Z,2.30
2018-07-16T06:45:35.526Z,2.40
2018-07-16T06:46:35.564Z,2.40
2018-07-16T06:47:35.595Z,2.40
2018-07-16T06:48:35.632Z,2.20
2018-07-16T06:49:35.666Z,2.40
2018-07-16T06:50:35.706Z,2.40
2018-07-16T06:51:35.744Z,2.10
2018-07-16T06:52:35.770Z,2.40
2018-07-16T06:53:35.813Z,2.30
2018-07-16T06:54:35.841Z,2.30
2018-07-16T06:55:35.876Z,2.60
2018-07-16T06:56:35.912Z,2.40
2018-07-16T06:57:35.952Z,2.40
2018-07-16T06:58:35.981Z,2.10
2018-07-16T06:59:36.014Z,2.50
2018-07-16T07:00:36.048Z,2.30
2018-07-16T07:01:36.084Z,2.30
2018-07-16T07:02:36.128Z,2.30
2018-07-16T07:03:36.154Z,2.20
2018-07-16T07:04:36.190Z,2.30
2018-07-16T07:05:36.224Z,2.90
2018-07-16T07:06:36.259Z,2.80
2018-07-16T07:07:36.295Z,2.60
2018-07-16T07:08:36.330Z,2.60
2018-07-16T07:09:36.366Z,2.90
2018-07-16T07:10:36.398Z,3.10
2018-07-16T07:11:36.434Z,2.70
2018-07-16T07:12:36.470Z,3.20
2018-07-16T07:13:36.502Z,3.30
2018-07-16T07:14:36.540Z,2.70
2018-07-16T07:15:36.573Z,3.20
2018-07-16T07:16:36.608Z,3.10
2018-07-16T07:17:36.646Z,2.70
2018-07-16T07:18:36.679Z,2.80
2018-07-16T07:19:36.711Z,2.90
2018-07-16T07:20:36.747Z,2.60
2018-07-16T07:21:36.782Z,2.90
2018-07-16T07:22:36.818Z,2.70
2018-07-16T07:23:36.850Z,2.80
2018-07-16T07:24:36.888Z,3.20
2018-07-16T07:25:37.069Z,3.30
2018-07-16T07:26:37.026Z,3.00
2018-07-16T07:27:36.993Z,4.10
2018-07-16T07:28:37.033Z,7.30
2018-07-16T07:29:37.063Z,88.00
2018-07-16T07:30:37.105Z,47.70
2018-07-16T07:31:37.134Z,61.90
2018-07-16T07:32:37.172Z,49.70
2018-07-16T07:33:37.207Z,33.60
2018-07-16T07:34:37.237Z,30.70
2018-07-16T07:35:37.317Z,30.20
2018-07-16T07:36:37.298Z,26.50
2018-07-16T07:37:37.341Z,25.90
2018-07-16T07:38:37.376Z,21.10
2018-07-16T07:39:37.411Z,20.10
2018-07-16T07:40:37.449Z,19.60
2018-07-16T07:41:37.486Z,18.70
2018-07-16T07:42:37.517Z,18.70
2018-07-16T07:43:37.552Z,16.80
2018-07-16T07:44:37.595Z,16.60
2018-07-16T07:45:37.624Z,15.00
2018-07-16T07:46:37.657Z,14.20
2018-07-16T07:47:37.754Z,14.00
2018-07-16T07:48:37.726Z,17.10
2018-07-16T07:49:37.763Z,21.60
2018-07-16T07:50:37.798Z,23.80
2018-07-16T07:51:37.836Z,28.50
2018-07-16T07:52:37.869Z,29.20
2018-07-16T07:53:37.908Z,29.10
2018-07-16T07:54:38.134Z,29.80
2018-07-16T07:55:37.977Z,27.70
2018-07-16T07:56:38.007Z,25.30
2018-07-16T07:57:38.042Z,13.50
2018-07-16T07:58:38.094Z,15.00
2018-07-16T07:59:38.120Z,15.70
2018-07-16T08:00:38.149Z,21.20
2018-07-16T08:01:38.181Z,20.70
2018-07-16T08:02:38.220Z,19.50
2018-07-16T08:03:38.255Z,20.50
2018-07-16T08:04:38.289Z,20.30
2018-07-16T08:05:38.322Z,20.60
2018-07-16T08:06:38.358Z,20.50
2018-07-16T08:07:38.393Z,21.20
2018-07-16T08:08:38.427Z,20.30
2018-07-16T08:09:38.467Z,21.40
2018-07-16T08:10:38.505Z,18.80
2018-07-16T08:11:38.546Z,19.90
2018-07-16T08:12:38.565Z,20.80
2018-07-16T08:13:38.656Z,20.60
2018-07-16T08:14:38.638Z,19.60
2018-07-16T08:15:38.673Z,20.40
2018-07-16T08:16:38.702Z,19.70
2018-07-16T08:17:38.746Z,19.50
2018-07-16T08:18:38.779Z,19.30
2018-07-16T08:19:38.813Z,19.40
2018-07-16T08:20:38.847Z,19.50
2018-07-16T08:21:38.885Z,19.20
2018-07-16T08:22:38.928Z,18.00
2018-07-16T08:23:38.955Z,19.20
2018-07-16T08:24:38.992Z,19.00
2018-07-16T08:25:39.023Z,18.60
2018-07-16T08:26:39.059Z,18.20
2018-07-16T08:27:39.088Z,18.90
2018-07-16T08:28:39.192Z,17.80
2018-07-16T08:29:39.162Z,18.80
2018-07-16T08:30:39.199Z,17.40
2018-07-16T08:31:39.235Z,17.10
2018-07-16T08:32:39.271Z,17.90
2018-07-16T08:33:39.363Z,18.80
2018-07-16T08:34:39.335Z,17.80
2018-07-16T08:35:39.392Z,18.10
2018-07-16T08:36:39.407Z,18.30
2018-07-16T08:37:39.442Z,18.00
2018-07-16T08:38:39.481Z,18.40
2018-07-16T08:39:39.530Z,17.40
2018-07-16T08:40:39.549Z,17.90
2018-07-16T08:41:39.584Z,17.20
2018-07-16T08:42:39.621Z,17.80
2018-07-16T08:43:39.651Z,17.20
2018-07-16T08:44:39.732Z,17.00
2018-07-16T08:45:39.727Z,17.20
2018-07-16T08:46:39.759Z,17.60
2018-07-16T08:47:39.796Z,17.80
2018-07-16T08:48:39.829Z,16.90
2018-07-16T08:49:39.864Z,16.60
2018-07-16T08:50:39.901Z,16.90
2018-07-16T08:51:39.932Z,16.50
2018-07-16T08:52:40.028Z,16.70
2018-07-16T08:53:40.007Z,17.30
2018-07-16T08:54:40.041Z,16.80
2018-07-16T08:55:40.077Z,16.60
2018-07-16T08:56:40.112Z,16.10
2018-07-16T08:57:40.146Z,16.90
2018-07-16T08:58:40.178Z,15.90
2018-07-16T08:59:40.212Z,16.10
2018-07-16T09:00:40.249Z,15.30
2018-07-16T09:01:40.284Z,16.10
2018-07-16T09:02:40.329Z,15.20
2018-07-16T09:03:40.355Z,16.10
2018-07-16T09:04:40.390Z,16.30
2018-07-16T09:05:40.425Z,16.80
2018-07-16T09:06:40.460Z,16.10
2018-07-16T09:07:40.493Z,15.30
2018-07-16T09:08:40.529Z,16.80
2018-07-16T09:09:40.565Z,16.20
2018-07-16T09:10:40.599Z,16.00
2018-07-16T09:11:40.630Z,15.40
2018-07-16T09:12:40.674Z,16.00
2018-07-16T09:13:40.799Z,15.30
2018-07-16T09:14:40.741Z,15.90
2018-07-16T09:15:40.778Z,15.90
2018-07-16T09:16:40.802Z,14.90
2018-07-16T09:17:40.843Z,15.50
2018-07-16T09:18:40.879Z,15.40
2018-07-16T09:19:40.917Z,15.10
2018-07-16T09:20:40.957Z,15.70
2018-07-16T09:21:40.981Z,15.00
2018-07-16T09:22:41.023Z,15.20
2018-07-16T09:23:41.054Z,14.70
2018-07-16T09:24:41.089Z,14.20
2018-07-16T09:25:41.125Z,14.20
2018-07-16T09:26:41.156Z,13.20
2018-07-16T09:27:41.198Z,14.80
2018-07-16T09:28:41.229Z,15.00
2018-07-16T09:29:41.264Z,14.50
2018-07-16T09:30:41.301Z,13.70
2018-07-16T09:31:41.351Z,15.00
2018-07-16T09:32:41.441Z,14.50
2018-07-16T09:33:41.404Z,14.90
2018-07-16T09:34:41.444Z,13.60
2018-07-16T09:35:41.473Z,14.10
2018-07-16T09:36:41.511Z,14.40
2018-07-16T09:37:41.545Z,13.30
2018-07-16T09:38:41.581Z,13.70
2018-07-16T09:39:41.617Z,14.00
2018-07-16T09:40:41.651Z,14.00
2018-07-16T09:41:41.686Z,13.70
2018-07-16T09:42:41.728Z,13.20
2018-07-16T09:43:41.755Z,13.50
2018-07-16T09:44:41.792Z,13.80
2018-07-16T09:45:41.824Z,13.70
2018-07-16T09:46:41.876Z,13.30
2018-07-16T09:47:41.894Z,13.50
2018-07-16T09:48:41.945Z,13.00
2018-07-16T09:49:41.982Z,13.10
2018-07-16T09:50:42.007Z,13.70
2018-07-16T09:51:42.038Z,13.30
2018-07-16T09:52:42.070Z,13.40
2018-07-16T09:53:42.103Z,13.10
2018-07-16T09:54:42.141Z,13.40
2018-07-16T09:55:42.176Z,12.40
2018-07-16T09:56:42.211Z,12.90
2018-07-16T09:57:42.244Z,13.70
2018-07-16T09:58:42.286Z,13.20
2018-07-16T09:59:42.315Z,13.20
2018-07-16T10:00:42.359Z,13.20
2018-07-16T10:01:42.417Z,13.20
2018-07-16T10:02:42.425Z,12.60
2018-07-16T10:03:42.462Z,13.10
2018-07-16T10:04:42.498Z,12.80
2018-07-16T10:05:42.526Z,13.20
2018-07-16T10:06:42.581Z,12.70
2018-07-16T10:07:42.600Z,12.30
2018-07-16T10:08:42.630Z,12.80
2018-07-16T10:09:42.669Z,12.00
2018-07-16T10:10:42.700Z,12.40
2018-07-16T10:11:42.738Z,12.60
2018-07-16T10:12:42.771Z,12.70
2018-07-16T10:13:42.829Z,12.40
2018-07-16T10:14:42.843Z,12.70
2018-07-16T10:15:42.881Z,12.40
2018-07-16T10:16:42.918Z,12.00
2018-07-16T10:17:42.956Z,12.10
2018-07-16T10:18:43.010Z,12.40
2018-07-16T10:19:43.014Z,12.20
2018-07-16T10:20:43.050Z,12.50
2018-07-16T10:21:43.087Z,12.70
2018-07-16T10:22:43.129Z,12.80
2018-07-16T10:23:43.156Z,11.90
2018-07-16T10:24:43.195Z,12.10
2018-07-16T10:25:43.260Z,11.60
2018-07-16T10:26:43.261Z,12.50
2018-07-16T10:27:43.294Z,11.70
2018-07-16T10:28:43.334Z,12.20
2018-07-16T10:29:43.367Z,11.40
2018-07-16T10:30:43.403Z,11.80
2018-07-16T10:31:43.439Z,11.70
2018-07-16T10:32:43.470Z,11.40
2018-07-16T10:33:43.564Z,10.90
2018-07-16T10:34:43.547Z,11.50
2018-07-16T10:35:43.576Z,11.90
2018-07-16T10:36:43.612Z,11.30
2018-07-16T10:37:43.646Z,11.50
2018-07-16T10:38:43.682Z,11.60
2018-07-16T10:39:43.717Z,11.40
2018-07-16T10:40:43.757Z,11.20
2018-07-16T10:41:43.786Z,10.20
2018-07-16T10:42:43.822Z,9.90
2018-07-16T10:43:43.861Z,10.10
2018-07-16T10:44:43.892Z,11.50
2018-07-16T10:45:43.928Z,11.40
2018-07-16T10:46:43.964Z,10.90
2018-07-16T10:47:43.998Z,10.50
2018-07-16T10:48:44.028Z,10.60
2018-07-16T10:49:44.083Z,10.80
2018-07-16T10:50:44.105Z,10.70
2018-07-16T10:51:44.139Z,11.30
2018-07-16T10:52:44.172Z,10.90
2018-07-16T10:53:44.207Z,10.20
2018-07-16T10:54:44.244Z,10.60
2018-07-16T10:55:44.281Z,10.70
2018-07-16T10:56:44.314Z,11.00
2018-07-16T10:57:44.348Z,10.50
2018-07-16T10:58:44.382Z,10.70
2018-07-16T10:59:44.418Z,10.70
2018-07-16T11:00:44.457Z,10.60
2018-07-16T11:01:44.487Z,10.50
2018-07-16T11:02:44.522Z,10.50
2018-07-16T11:03:44.558Z,10.40
2018-07-16T11:04:44.593Z,10.60
2018-07-16T11:05:44.628Z,10.30
2018-07-16T11:06:44.665Z,10.90
2018-07-16T11:07:44.697Z,11.00
2018-07-16T11:08:44.735Z,10.20
2018-07-16T11:09:44.771Z,10.50
2018-07-16T11:10:44.803Z,10.40
2018-07-16T11:11:44.842Z,10.30
2018-07-16T11:12:44.875Z,10.40
2018-07-16T11:13:44.908Z,9.40
2018-07-16T11:14:44.945Z,9.60
2018-07-16T11:15:44.977Z,9.80
2018-07-16T11:16:45.033Z,10.40
2018-07-16T11:17:45.047Z,9.30
2018-07-16T11:18:45.085Z,9.50
2018-07-16T11:19:45.118Z,10.40
2018-07-16T11:20:45.174Z,10.50
2018-07-16T11:21:45.196Z,10.30
2018-07-16T11:22:45.223Z,9.80
2018-07-16T11:23:45.258Z,9.90
2018-07-16T11:24:45.295Z,10.70
2018-07-16T11:25:45.328Z,10.10
2018-07-16T11:26:45.362Z,9.90
2018-07-16T11:27:45.398Z,9.80
2018-07-16T11:28:45.447Z,10.20
2018-07-16T11:29:45.473Z,9.70
2018-07-16T11:30:45.505Z,9.60
2018-07-16T11:31:45.541Z,10.20
2018-07-16T11:32:45.574Z,9.90
2018-07-16T11:33:45.609Z,9.90
2018-07-16T11:34:45.649Z,9.90
2018-07-16T11:35:45.710Z,9.60
2018-07-16T11:36:45.715Z,9.70
2018-07-16T11:37:45.750Z,9.40
2018-07-16T11:38:45.791Z,9.10
2018-07-16T11:39:45.818Z,9.40
2018-07-16T11:40:45.857Z,9.60
2018-07-16T11:41:45.889Z,9.20
2018-07-16T11:42:45.923Z,10.00
2018-07-16T11:43:45.959Z,9.30
2018-07-16T11:44:45.997Z,9.80
2018-07-16T11:45:46.030Z,9.40
2018-07-16T11:46:46.068Z,9.40
2018-07-16T11:47:46.099Z,9.30
2018-07-16T11:48:46.136Z,9.40
2018-07-16T11:49:46.169Z,9.80
2018-07-16T11:50:46.222Z,9.60
2018-07-16T11:51:46.241Z,9.80
2018-07-16T11:52:46.274Z,9.40
2018-07-16T11:53:46.309Z,9.30
2018-07-16T11:54:46.349Z,9.50
2018-07-16T11:55:46.408Z,8.80
2018-07-16T11:56:46.415Z,9.20
2018-07-16T11:57:46.453Z,9.40
2018-07-16T11:58:46.512Z,8.90
2018-07-16T11:59:46.520Z,8.90
2018-07-16T12:00:46.557Z,9.10
2018-07-16T12:01:46.641Z,9.40
2018-07-16T12:02:46.626Z,9.30
2018-07-16T12:03:46.661Z,8.40
2018-07-16T12:04:46.696Z,9.00
2018-07-16T12:05:46.732Z,9.60
2018-07-16T12:06:46.763Z,8.60
2018-07-16T12:07:46.804Z,8.90
2018-07-16T12:08:46.860Z,8.80
2018-07-16T12:09:46.873Z,8.80
2018-07-16T12:10:46.908Z,8.70
2018-07-16T12:11:46.946Z,9.70
2018-07-16T12:12:47.020Z,9.00
2018-07-16T12:13:47.011Z,8.90
2018-07-16T12:14:47.048Z,8.90
2018-07-16T12:15:47.079Z,8.70
2018-07-16T12:16:47.118Z,8.70
2018-07-16T12:17:47.152Z,8.60
2018-07-16T12:18:47.192Z,8.80
2018-07-16T12:19:47.226Z,8.50
2018-07-16T12:20:47.258Z,8.30
2018-07-16T12:21:47.292Z,8.30
2018-07-16T12:22:47.327Z,8.20
2018-07-16T12:23:47.364Z,8.20
2018-07-16T12:24:47.400Z,8.30
2018-07-16T12:25:47.444Z,8.00
2018-07-16T12:26:47.466Z,8.60
2018-07-16T12:27:47.505Z,8.30
2018-07-16T12:28:47.538Z,8.40
2018-07-16T12:29:47.577Z,8.80
2018-07-16T12:30:47.603Z,8.40
2018-07-16T12:31:47.643Z,8.30
2018-07-16T12:32:47.748Z,8.40
2018-07-16T12:33:47.714Z,8.30
2018-07-16T12:34:47.750Z,8.70
2018-07-16T12:35:47.786Z,8.30
2018-07-16T12:36:47.822Z,8.20
2018-07-16T12:37:47.856Z,7.90
2018-07-16T12:38:47.887Z,8.20
2018-07-16T12:39:47.922Z,8.30
2018-07-16T12:40:47.962Z,8.50
2018-07-16T12:41:48.002Z,8.30
2018-07-16T12:42:48.043Z,8.30
2018-07-16T12:43:48.109Z,8.10
2018-07-16T12:44:48.101Z,7.50
2018-07-16T12:45:48.139Z,7.60
2018-07-16T12:46:48.193Z,8.20
2018-07-16T12:47:48.208Z,7.70
2018-07-16T12:48:48.240Z,8.40
2018-07-16T12:49:48.276Z,8.00
2018-07-16T12:50:48.308Z,8.20
2018-07-16T12:51:48.345Z,7.80
2018-07-16T12:52:48.387Z,8.10
2018-07-16T12:53:48.418Z,7.70
2018-07-16T12:54:48.463Z,7.70
2018-07-16T12:55:48.476Z,7.50
2018-07-16T12:56:48.521Z,7.80
2018-07-16T12:57:48.552Z,7.30
2018-07-16T12:58:48.599Z,7.80
2018-07-16T12:59:48.640Z,7.50
2018-07-16T13:00:48.672Z,7.70
2018-07-16T13:01:48.697Z,7.60
2018-07-16T13:02:48.768Z,8.00
2018-07-16T13:03:48.769Z,8.40
2018-07-16T13:04:48.804Z,7.20
2018-07-16T13:05:48.855Z,8.20
2018-07-16T13:06:48.877Z,7.80
2018-07-16T13:07:48.919Z,8.00
2018-07-16T13:08:48.944Z,7.90
2018-07-16T13:09:48.977Z,7.50
2018-07-16T13:10:49.149Z,8.00